Waterman, Pennsylvania
Current Conditions -  °F | °C
As of 8:35 PM on Tuesday 21 Oct 2014 (Local Time) from KIDI Reporting Station
Haze Haze  
Wind Chill: 46°   Ceiling: 900
Heat Index: 48°   Visibility: 3mi
Dew Point: 46°   Wind: 5mph
Humidity: 93%   Direction: 330°NNW
Pressure: 30"   Gusts: NA
Location:  40.5413°N, 79.1838°W
Report Text: KIDI 220035Z AUTO 33004KT 3SM BR BKN009 OVC022 09/08 A3000 RMK A01
Loading
Personal Weather Stations






























Interactive Weather Map
Tropical Storm Tracking
New forecast layout! Learn more

10-Day Weather Forecast

Advertisements
Track Severe Weather on mobile